sensor_id;sensor_type;location;lat;lon;timestamp;P1;durP1;ratioP1;P2;durP2;ratioP2
5491;SDS011;2768;53.540;10.224;2022-12-20T00:00:45;12.63;;;10.47;;
5491;SDS011;2768;53.540;10.224;2022-12-20T00:06:39;14.27;;;11.47;;
5491;SDS011;2768;53.540;10.224;2022-12-20T00:12:34;12.77;;;10.20;;
5491;SDS011;2768;53.540;10.224;2022-12-20T00:18:28;11.00;;;9.53;;
5491;SDS011;2768;53.540;10.224;2022-12-20T00:24:21;11.63;;;9.87;;
5491;SDS011;2768;53.540;10.224;2022-12-20T00:30:18;11.93;;;8.37;;
5491;SDS011;2768;53.540;10.224;2022-12-20T00:36:12;10.30;;;8.17;;
5491;SDS011;2768;53.540;10.224;2022-12-20T00:42:06;10.70;;;9.57;;
5491;SDS011;2768;53.540;10.224;2022-12-20T00:48:00;9.40;;;7.90;;
5491;SDS011;2768;53.540;10.224;2022-12-20T00:53:54;11.40;;;9.10;;
5491;SDS011;2768;53.540;10.224;2022-12-20T00:59:48;9.40;;;8.07;;
5491;SDS011;2768;53.540;10.224;2022-12-20T01:05:49;9.20;;;7.60;;
5491;SDS011;2768;53.540;10.224;2022-12-20T01:11:44;10.50;;;7.93;;
5491;SDS011;2768;53.540;10.224;2022-12-20T01:17:37;10.40;;;7.77;;
5491;SDS011;2768;53.540;10.224;2022-12-20T01:23:32;9.30;;;8.40;;
5491;SDS011;2768;53.540;10.224;2022-12-20T01:29:27;9.97;;;7.87;;
5491;SDS011;2768;53.540;10.224;2022-12-20T01:35:21;8.90;;;7.30;;
5491;SDS011;2768;53.540;10.224;2022-12-20T01:41:16;9.73;;;7.63;;
5491;SDS011;2768;53.540;10.224;2022-12-20T01:47:10;8.20;;;7.40;;
5491;SDS011;2768;53.540;10.224;2022-12-20T01:53:05;8.83;;;7.87;;
5491;SDS011;2768;53.540;10.224;2022-12-20T01:59:00;9.50;;;7.03;;
5491;SDS011;2768;53.540;10.224;2022-12-20T02:04:54;9.50;;;8.00;;
5491;SDS011;2768;53.540;10.224;2022-12-20T02:10:52;11.60;;;8.13;;
5491;SDS011;2768;53.540;10.224;2022-12-20T02:17:02;8.50;;;7.07;;
5491;SDS011;2768;53.540;10.224;2022-12-20T02:23:10;10.00;;;7.67;;
5491;SDS011;2768;53.540;10.224;2022-12-20T02:29:28;8.40;;;7.50;;
5491;SDS011;2768;53.540;10.224;2022-12-20T02:35:28;9.57;;;7.93;;
5491;SDS011;2768;53.540;10.224;2022-12-20T02:41:25;7.10;;;6.17;;
5491;SDS011;2768;53.540;10.224;2022-12-20T02:47:23;8.47;;;7.33;;
5491;SDS011;2768;53.540;10.224;2022-12-20T02:53:22;8.83;;;6.90;;
5491;SDS011;2768;53.540;10.224;2022-12-20T02:59:17;10.30;;;6.87;;
5491;SDS011;2768;53.540;10.224;2022-12-20T03:05:14;9.40;;;7.03;;
5491;SDS011;2768;53.540;10.224;2022-12-20T03:11:10;11.13;;;7.93;;
5491;SDS011;2768;53.540;10.224;2022-12-20T03:17:03;8.30;;;7.17;;
5491;SDS011;2768;53.540;10.224;2022-12-20T03:22:59;10.07;;;7.40;;
5491;SDS011;2768;53.540;10.224;2022-12-20T03:28:54;9.53;;;7.80;;
5491;SDS011;2768;53.540;10.224;2022-12-20T03:34:50;8.00;;;7.17;;
5491;SDS011;2768;53.540;10.224;2022-12-20T03:40:51;8.63;;;6.40;;
5491;SDS011;2768;53.540;10.224;2022-12-20T03:46:47;8.30;;;7.43;;
5491;SDS011;2768;53.540;10.224;2022-12-20T03:52:41;7.97;;;6.87;;
5491;SDS011;2768;53.540;10.224;2022-12-20T03:58:34;8.63;;;7.43;;
5491;SDS011;2768;53.540;10.224;2022-12-20T04:04:29;8.33;;;7.43;;
5491;SDS011;2768;53.540;10.224;2022-12-20T04:10:23;9.83;;;7.73;;
5491;SDS011;2768;53.540;10.224;2022-12-20T04:16:16;9.77;;;7.23;;
5491;SDS011;2768;53.540;10.224;2022-12-20T04:22:13;14.30;;;7.20;;
5491;SDS011;2768;53.540;10.224;2022-12-20T04:28:13;10.37;;;7.83;;
5491;SDS011;2768;53.540;10.224;2022-12-20T04:34:07;7.03;;;6.33;;
5491;SDS011;2768;53.540;10.224;2022-12-20T04:40:03;8.70;;;7.80;;
5491;SDS011;2768;53.540;10.224;2022-12-20T04:46:17;8.27;;;7.47;;
5491;SDS011;2768;53.540;10.224;2022-12-20T04:52:12;10.80;;;8.80;;
5491;SDS011;2768;53.540;10.224;2022-12-20T04:58:25;9.87;;;8.80;;
5491;SDS011;2768;53.540;10.224;2022-12-20T05:04:18;9.77;;;8.00;;
5491;SDS011;2768;53.540;10.224;2022-12-20T05:10:11;10.70;;;8.70;;
5491;SDS011;2768;53.540;10.224;2022-12-20T05:16:07;11.67;;;8.30;;
5491;SDS011;2768;53.540;10.224;2022-12-20T05:22:02;9.63;;;8.63;;
5491;SDS011;2768;53.540;10.224;2022-12-20T05:28:27;11.47;;;9.03;;
5491;SDS011;2768;53.540;10.224;2022-12-20T05:34:23;11.03;;;9.10;;
5491;SDS011;2768;53.540;10.224;2022-12-20T05:40:19;13.00;;;9.17;;
5491;SDS011;2768;53.540;10.224;2022-12-20T05:46:14;10.73;;;9.33;;
5491;SDS011;2768;53.540;10.224;2022-12-20T05:52:18;11.17;;;9.10;;
5491;SDS011;2768;53.540;10.224;2022-12-20T05:58:13;13.90;;;9.33;;
5491;SDS011;2768;53.540;10.224;2022-12-20T06:04:18;11.43;;;10.23;;
5491;SDS011;2768;53.540;10.224;2022-12-20T06:10:15;12.67;;;10.50;;
5491;SDS011;2768;53.540;10.224;2022-12-20T06:16:16;14.00;;;10.00;;
5491;SDS011;2768;53.540;10.224;2022-12-20T06:22:14;17.30;;;11.50;;
5491;SDS011;2768;53.540;10.224;2022-12-20T06:35:21;17.23;;;10.20;;
5491;SDS011;2768;53.540;10.224;2022-12-20T06:41:17;13.30;;;10.40;;
5491;SDS011;2768;53.540;10.224;2022-12-20T06:47:12;16.47;;;11.10;;
5491;SDS011;2768;53.540;10.224;2022-12-20T06:53:06;12.70;;;10.40;;
5491;SDS011;2768;53.540;10.224;2022-12-20T06:58:59;12.53;;;9.70;;
5491;SDS011;2768;53.540;10.224;2022-12-20T07:04:54;11.00;;;9.40;;
5491;SDS011;2768;53.540;10.224;2022-12-20T07:10:47;12.27;;;9.60;;
5491;SDS011;2768;53.540;10.224;2022-12-20T07:16:46;12.40;;;10.20;;
5491;SDS011;2768;53.540;10.224;2022-12-20T07:22:41;13.90;;;10.47;;
5491;SDS011;2768;53.540;10.224;2022-12-20T07:28:34;11.87;;;10.57;;
5491;SDS011;2768;53.540;10.224;2022-12-20T07:34:36;15.97;;;11.67;;
5491;SDS011;2768;53.540;10.224;2022-12-20T07:40:39;16.30;;;11.63;;
5491;SDS011;2768;53.540;10.224;2022-12-20T07:46:34;16.07;;;13.47;;
5491;SDS011;2768;53.540;10.224;2022-12-20T07:52:31;17.80;;;11.70;;
5491;SDS011;2768;53.540;10.224;2022-12-20T07:58:40;18.40;;;12.27;;
5491;SDS011;2768;53.540;10.224;2022-12-20T08:04:43;15.50;;;12.47;;
5491;SDS011;2768;53.540;10.224;2022-12-20T08:10:37;15.90;;;13.10;;
5491;SDS011;2768;53.540;10.224;2022-12-20T08:16:33;15.70;;;12.37;;
5491;SDS011;2768;53.540;10.224;2022-12-20T08:22:26;15.77;;;12.43;;
5491;SDS011;2768;53.540;10.224;2022-12-20T08:28:20;17.43;;;12.60;;
5491;SDS011;2768;53.540;10.224;2022-12-20T08:34:16;16.53;;;11.93;;
5491;SDS011;2768;53.540;10.224;2022-12-20T08:40:10;15.00;;;11.33;;
5491;SDS011;2768;53.540;10.224;2022-12-20T08:46:04;19.97;;;12.77;;
5491;SDS011;2768;53.540;10.224;2022-12-20T08:51:59;15.97;;;12.10;;
5491;SDS011;2768;53.540;10.224;2022-12-20T09:05:14;13.50;;;11.80;;
5491;SDS011;2768;53.540;10.224;2022-12-20T09:11:09;18.93;;;12.90;;
5491;SDS011;2768;53.540;10.224;2022-12-20T09:17:04;14.00;;;11.77;;
5491;SDS011;2768;53.540;10.224;2022-12-20T09:22:57;14.50;;;12.77;;
5491;SDS011;2768;53.540;10.224;2022-12-20T09:28:52;17.97;;;12.60;;
5491;SDS011;2768;53.540;10.224;2022-12-20T09:34:46;14.50;;;12.60;;
5491;SDS011;2768;53.540;10.224;2022-12-20T09:40:43;15.40;;;12.03;;
5491;SDS011;2768;53.540;10.224;2022-12-20T09:46:40;16.57;;;11.90;;
5491;SDS011;2768;53.540;10.224;2022-12-20T09:52:38;16.30;;;11.90;;
5491;SDS011;2768;53.540;10.224;2022-12-20T09:58:47;14.03;;;11.97;;
5491;SDS011;2768;53.540;10.224;2022-12-20T10:04:53;16.33;;;12.70;;
5491;SDS011;2768;53.540;10.224;2022-12-20T10:10:50;16.00;;;11.63;;
5491;SDS011;2768;53.540;10.224;2022-12-20T10:16:48;14.10;;;10.40;;
5491;SDS011;2768;53.540;10.224;2022-12-20T10:22:49;10.80;;;9.13;;
5491;SDS011;2768;53.540;10.224;2022-12-20T10:28:49;10.87;;;9.23;;
5491;SDS011;2768;53.540;10.224;2022-12-20T10:34:45;12.00;;;10.50;;
5491;SDS011;2768;53.540;10.224;2022-12-20T10:40:59;11.40;;;9.73;;
5491;SDS011;2768;53.540;10.224;2022-12-20T10:47:20;13.10;;;10.00;;
5491;SDS011;2768;53.540;10.224;2022-12-20T10:53:23;12.73;;;10.47;;
5491;SDS011;2768;53.540;10.224;2022-12-20T10:59:25;12.90;;;9.67;;
5491;SDS011;2768;53.540;10.224;2022-12-20T11:05:23;11.70;;;9.87;;
5491;SDS011;2768;53.540;10.224;2022-12-20T11:11:17;11.43;;;9.57;;
5491;SDS011;2768;53.540;10.224;2022-12-20T11:17:16;12.50;;;9.50;;
5491;SDS011;2768;53.540;10.224;2022-12-20T11:23:17;9.67;;;8.67;;
5491;SDS011;2768;53.540;10.224;2022-12-20T11:29:23;12.10;;;8.77;;
5491;SDS011;2768;53.540;10.224;2022-12-20T11:35:31;12.20;;;10.83;;
5491;SDS011;2768;53.540;10.224;2022-12-20T11:41:35;13.13;;;10.20;;
5491;SDS011;2768;53.540;10.224;2022-12-20T11:53:56;9.50;;;7.80;;
5491;SDS011;2768;53.540;10.224;2022-12-20T11:59:57;11.70;;;7.77;;
5491;SDS011;2768;53.540;10.224;2022-12-20T12:06:03;10.63;;;8.37;;
5491;SDS011;2768;53.540;10.224;2022-12-20T12:12:01;8.90;;;8.10;;
5491;SDS011;2768;53.540;10.224;2022-12-20T12:18:01;10.63;;;7.77;;
5491;SDS011;2768;53.540;10.224;2022-12-20T12:24:00;9.30;;;8.30;;
5491;SDS011;2768;53.540;10.224;2022-12-20T12:30:00;9.53;;;8.17;;
5491;SDS011;2768;53.540;10.224;2022-12-20T12:36:01;10.73;;;7.57;;
5491;SDS011;2768;53.540;10.224;2022-12-20T12:42:19;9.20;;;7.93;;
5491;SDS011;2768;53.540;10.224;2022-12-20T12:48:44;8.50;;;7.07;;
5491;SDS011;2768;53.540;10.224;2022-12-20T12:54:42;8.13;;;7.07;;
5491;SDS011;2768;53.540;10.224;2022-12-20T13:00:48;10.13;;;7.33;;
5491;SDS011;2768;53.540;10.224;2022-12-20T13:19:36;10.07;;;8.20;;
5491;SDS011;2768;53.540;10.224;2022-12-20T13:25:31;10.30;;;7.73;;
5491;SDS011;2768;53.540;10.224;2022-12-20T13:31:29;8.00;;;7.00;;
5491;SDS011;2768;53.540;10.224;2022-12-20T13:37:26;8.00;;;7.10;;
5491;SDS011;2768;53.540;10.224;2022-12-20T13:43:24;7.90;;;7.10;;
5491;SDS011;2768;53.540;10.224;2022-12-20T13:49:24;7.30;;;6.60;;
5491;SDS011;2768;53.540;10.224;2022-12-20T13:55:22;8.53;;;6.83;;
5491;SDS011;2768;53.540;10.224;2022-12-20T14:01:18;10.40;;;7.60;;
5491;SDS011;2768;53.540;10.224;2022-12-20T14:07:15;7.90;;;6.77;;
5491;SDS011;2768;53.540;10.224;2022-12-20T14:13:17;8.53;;;5.73;;
5491;SDS011;2768;53.540;10.224;2022-12-20T14:19:13;8.47;;;6.10;;
5491;SDS011;2768;53.540;10.224;2022-12-20T14:25:10;9.17;;;5.70;;
5491;SDS011;2768;53.540;10.224;2022-12-20T14:31:28;6.83;;;6.13;;
5491;SDS011;2768;53.540;10.224;2022-12-20T14:37:30;8.13;;;5.80;;
5491;SDS011;2768;53.540;10.224;2022-12-20T14:43:27;8.37;;;6.23;;
5491;SDS011;2768;53.540;10.224;2022-12-20T14:49:25;7.10;;;5.90;;
5491;SDS011;2768;53.540;10.224;2022-12-20T14:55:22;7.00;;;6.30;;
5491;SDS011;2768;53.540;10.224;2022-12-20T15:01:18;6.37;;;5.77;;
5491;SDS011;2768;53.540;10.224;2022-12-20T15:07:27;7.33;;;5.70;;
5491;SDS011;2768;53.540;10.224;2022-12-20T15:13:23;6.17;;;5.57;;
5491;SDS011;2768;53.540;10.224;2022-12-20T15:19:20;6.73;;;5.70;;
5491;SDS011;2768;53.540;10.224;2022-12-20T15:25:17;7.17;;;6.20;;
5491;SDS011;2768;53.540;10.224;2022-12-20T15:31:12;6.43;;;5.20;;
5491;SDS011;2768;53.540;10.224;2022-12-20T15:37:09;8.37;;;6.20;;
5491;SDS011;2768;53.540;10.224;2022-12-20T15:43:11;6.83;;;6.13;;
5491;SDS011;2768;53.540;10.224;2022-12-20T15:49:08;8.07;;;6.43;;
5491;SDS011;2768;53.540;10.224;2022-12-20T15:55:08;7.00;;;6.30;;
5491;SDS011;2768;53.540;10.224;2022-12-20T16:01:02;7.20;;;6.37;;
5491;SDS011;2768;53.540;10.224;2022-12-20T16:06:56;7.40;;;6.67;;
5491;SDS011;2768;53.540;10.224;2022-12-20T16:12:50;7.93;;;7.23;;
5491;SDS011;2768;53.540;10.224;2022-12-20T16:18:46;7.77;;;6.27;;
5491;SDS011;2768;53.540;10.224;2022-12-20T16:24:39;8.50;;;6.00;;
5491;SDS011;2768;53.540;10.224;2022-12-20T16:30:34;6.53;;;5.93;;
5491;SDS011;2768;53.540;10.224;2022-12-20T16:36:27;9.20;;;5.93;;
5491;SDS011;2768;53.540;10.224;2022-12-20T16:42:21;7.83;;;5.90;;
5491;SDS011;2768;53.540;10.224;2022-12-20T16:48:16;7.03;;;6.30;;
5491;SDS011;2768;53.540;10.224;2022-12-20T16:54:11;7.90;;;5.70;;
5491;SDS011;2768;53.540;10.224;2022-12-20T17:00:15;7.90;;;6.47;;
5491;SDS011;2768;53.540;10.224;2022-12-20T17:06:11;6.97;;;6.27;;
5491;SDS011;2768;53.540;10.224;2022-12-20T17:12:08;17.00;;;12.63;;
5491;SDS011;2768;53.540;10.224;2022-12-20T17:18:06;7.30;;;6.27;;
5491;SDS011;2768;53.540;10.224;2022-12-20T17:24:01;11.17;;;6.53;;
5491;SDS011;2768;53.540;10.224;2022-12-20T17:29:57;8.00;;;7.10;;
5491;SDS011;2768;53.540;10.224;2022-12-20T17:35:50;7.73;;;6.53;;
5491;SDS011;2768;53.540;10.224;2022-12-20T17:41:45;11.20;;;7.30;;
5491;SDS011;2768;53.540;10.224;2022-12-20T17:47:40;7.53;;;6.80;;
5491;SDS011;2768;53.540;10.224;2022-12-20T17:53:34;9.40;;;6.80;;
5491;SDS011;2768;53.540;10.224;2022-12-20T17:59:29;7.20;;;6.50;;
5491;SDS011;2768;53.540;10.224;2022-12-20T18:05:22;6.60;;;5.90;;
5491;SDS011;2768;53.540;10.224;2022-12-20T18:11:16;7.73;;;6.20;;
5491;SDS011;2768;53.540;10.224;2022-12-20T18:17:13;9.17;;;6.50;;
5491;SDS011;2768;53.540;10.224;2022-12-20T18:23:06;7.60;;;6.10;;
5491;SDS011;2768;53.540;10.224;2022-12-20T18:29:00;8.93;;;7.20;;
5491;SDS011;2768;53.540;10.224;2022-12-20T18:41:43;10.37;;;7.20;;
5491;SDS011;2768;53.540;10.224;2022-12-20T18:47:39;7.13;;;6.47;;
5491;SDS011;2768;53.540;10.224;2022-12-20T18:54:04;11.00;;;7.13;;
5491;SDS011;2768;53.540;10.224;2022-12-20T19:00:38;8.47;;;7.00;;
5491;SDS011;2768;53.540;10.224;2022-12-20T19:06:32;9.37;;;6.50;;
5491;SDS011;2768;53.540;10.224;2022-12-20T19:12:25;8.10;;;7.10;;
5491;SDS011;2768;53.540;10.224;2022-12-20T19:18:20;11.47;;;7.03;;
5491;SDS011;2768;53.540;10.224;2022-12-20T19:24:14;10.03;;;8.13;;
5491;SDS011;2768;53.540;10.224;2022-12-20T19:30:08;9.43;;;8.10;;
5491;SDS011;2768;53.540;10.224;2022-12-20T19:36:07;9.70;;;8.07;;
5491;SDS011;2768;53.540;10.224;2022-12-20T19:42:01;10.07;;;8.37;;
5491;SDS011;2768;53.540;10.224;2022-12-20T19:48:15;9.50;;;8.33;;
5491;SDS011;2768;53.540;10.224;2022-12-20T19:54:10;13.10;;;10.13;;
5491;SDS011;2768;53.540;10.224;2022-12-20T20:00:04;11.77;;;8.80;;
5491;SDS011;2768;53.540;10.224;2022-12-20T20:06:02;11.57;;;10.37;;
5491;SDS011;2768;53.540;10.224;2022-12-20T20:11:57;11.97;;;10.67;;
5491;SDS011;2768;53.540;10.224;2022-12-20T20:17:51;12.63;;;11.33;;
5491;SDS011;2768;53.540;10.224;2022-12-20T20:23:44;12.43;;;10.90;;
5491;SDS011;2768;53.540;10.224;2022-12-20T20:29:39;13.40;;;11.77;;
5491;SDS011;2768;53.540;10.224;2022-12-20T20:35:33;14.57;;;13.07;;
5491;SDS011;2768;53.540;10.224;2022-12-20T20:41:27;13.93;;;12.53;;
5491;SDS011;2768;53.540;10.224;2022-12-20T20:47:22;14.80;;;13.17;;
5491;SDS011;2768;53.540;10.224;2022-12-20T20:53:15;16.50;;;14.50;;
5491;SDS011;2768;53.540;10.224;2022-12-20T20:59:09;16.67;;;13.93;;
5491;SDS011;2768;53.540;10.224;2022-12-20T21:05:09;17.03;;;14.10;;
5491;SDS011;2768;53.540;10.224;2022-12-20T21:11:23;16.23;;;14.53;;
5491;SDS011;2768;53.540;10.224;2022-12-20T21:17:16;17.70;;;15.80;;
5491;SDS011;2768;53.540;10.224;2022-12-20T21:23:11;19.87;;;16.17;;
5491;SDS011;2768;53.540;10.224;2022-12-20T21:29:05;18.03;;;16.23;;
5491;SDS011;2768;53.540;10.224;2022-12-20T21:34:58;20.70;;;16.80;;
5491;SDS011;2768;53.540;10.224;2022-12-20T21:40:58;20.70;;;17.57;;
5491;SDS011;2768;53.540;10.224;2022-12-20T21:46:52;19.30;;;16.80;;
5491;SDS011;2768;53.540;10.224;2022-12-20T21:52:46;19.30;;;17.40;;
5491;SDS011;2768;53.540;10.224;2022-12-20T21:58:41;18.17;;;16.27;;
5491;SDS011;2768;53.540;10.224;2022-12-20T22:04:35;18.70;;;16.70;;
5491;SDS011;2768;53.540;10.224;2022-12-20T22:10:29;20.90;;;17.40;;
5491;SDS011;2768;53.540;10.224;2022-12-20T22:16:25;21.50;;;17.50;;
5491;SDS011;2768;53.540;10.224;2022-12-20T22:22:20;22.33;;;17.97;;
5491;SDS011;2768;53.540;10.224;2022-12-20T22:28:16;22.67;;;17.67;;
5491;SDS011;2768;53.540;10.224;2022-12-20T22:34:11;21.50;;;17.77;;
5491;SDS011;2768;53.540;10.224;2022-12-20T22:40:05;21.17;;;18.00;;
5491;SDS011;2768;53.540;10.224;2022-12-20T22:45:59;21.10;;;17.57;;
5491;SDS011;2768;53.540;10.224;2022-12-20T22:51:54;21.37;;;17.00;;
5491;SDS011;2768;53.540;10.224;2022-12-20T22:57:58;21.40;;;18.00;;
5491;SDS011;2768;53.540;10.224;2022-12-20T23:03:51;21.07;;;16.70;;
5491;SDS011;2768;53.540;10.224;2022-12-20T23:09:46;20.53;;;17.73;;
5491;SDS011;2768;53.540;10.224;2022-12-20T23:15:39;21.77;;;16.60;;
5491;SDS011;2768;53.540;10.224;2022-12-20T23:21:33;20.13;;;15.50;;
5491;SDS011;2768;53.540;10.224;2022-12-20T23:27:46;19.50;;;15.70;;
5491;SDS011;2768;53.540;10.224;2022-12-20T23:33:41;21.63;;;16.00;;
5491;SDS011;2768;53.540;10.224;2022-12-20T23:39:35;21.90;;;16.80;;
5491;SDS011;2768;53.540;10.224;2022-12-20T23:45:30;20.30;;;16.63;;
5491;SDS011;2768;53.540;10.224;2022-12-20T23:51:23;19.47;;;15.60;;
5491;SDS011;2768;53.540;10.224;2022-12-20T23:57:16;19.93;;;15.10;;
